Time;durP1;ratioP1;P1;durP2;ratioP2;P2;SDS_P1;SDS_P2;PMS_P1;PMS_P2;Temp;Humidity;BMP_temperature;BMP_pressure;BME280_temperature;BME280_humidity;BME280_pressure;Samples;Min_cycle;Max_cycle;Signal;HPM_P1;HPM_P2
2021/03/17 00:02:16;;;;;;;13.00;1.42;;;;;;;-0.92;86.91;102250.69;4994230;28;20057;-78
2021/03/17 00:05:00;;;;;;;5.43;1.27;;;;;;;-0.97;86.80;102244.78;4976347;28;20050;-77
2021/03/17 00:07:44;;;;;;;8.07;1.70;;;;;;;-1.00;86.51;102242.25;4988604;28;20085;-78
2021/03/17 00:10:32;;;;;;;12.90;1.58;;;;;;;-0.98;86.66;102251.66;4999375;28;20078;-77
2021/03/17 00:13:19;;;;;;;12.07;1.58;;;;;;;-1.00;87.09;102247.41;4980894;28;20141;-76
2021/03/17 00:16:03;;;;;;;10.95;1.58;;;;;;;-0.99;87.06;102244.81;4992242;28;20057;-77
2021/03/17 00:18:47;;;;;;;12.60;1.40;;;;;;;-1.03;87.28;102245.75;4992783;28;20042;-77
2021/03/17 00:21:32;;;;;;;12.45;1.45;;;;;;;-1.09;87.14;102245.91;4989105;28;20037;-76
2021/03/17 00:24:16;;;;;;;7.47;1.77;;;;;;;-1.14;87.38;102255.47;5007244;28;20038;-78
2021/03/17 00:27:01;;;;;;;9.90;1.30;;;;;;;-1.22;87.77;102258.22;4997002;28;20058;-77
2021/03/17 00:29:45;;;;;;;14.73;1.60;;;;;;;-1.24;88.34;102253.97;5017088;28;20046;-76
2021/03/17 00:32:29;;;;;;;10.30;1.58;;;;;;;-1.28;88.37;102260.06;4990331;28;20041;-76
2021/03/17 00:35:14;;;;;;;10.48;1.75;;;;;;;-1.34;88.46;102261.03;5025265;28;20049;-76
2021/03/17 00:37:57;;;;;;;8.13;1.50;;;;;;;-1.30;88.37;102265.25;4999018;28;20046;-75
2021/03/17 00:40:41;;;;;;;7.72;1.48;;;;;;;-1.32;88.65;102261.00;5001016;28;20038;-76
2021/03/17 00:43:25;;;;;;;15.52;1.92;;;;;;;-1.29;88.26;102256.63;4999106;28;20061;-77
2021/03/17 00:46:10;;;;;;;9.10;1.58;;;;;;;-1.42;88.22;102242.34;5012685;28;20050;-77
2021/03/17 00:48:35;;;;;;;10.27;1.67;;;;;;;-1.30;88.48;102254.09;5017841;28;20045;-76
2021/03/17 00:51:13;;;;;;;8.20;1.60;;;;;;;-1.39;88.57;102252.59;4977609;28;20124;-77
2021/03/17 00:53:57;;;;;;;12.52;1.70;;;;;;;-1.37;88.81;102259.38;4998414;28;20062;-75
2021/03/17 00:56:24;;;;;;;10.90;1.98;;;;;;;-1.35;89.10;102250.78;4984233;28;20046;-79
2021/03/17 00:58:57;;;;;;;11.25;1.60;;;;;;;-1.38;89.27;102249.09;4989343;28;20053;-78
2021/03/17 01:01:23;;;;;;;10.45;1.85;;;;;;;-1.34;89.15;102255.88;5001110;28;20046;-76
2021/03/17 01:03:48;;;;;;;13.55;1.23;;;;;;;-1.38;89.13;102260.25;4979867;28;20136;-76
2021/03/17 01:06:14;;;;;;;9.88;2.03;;;;;;;-1.40;89.58;102256.84;4977130;28;20121;-77
2021/03/17 01:08:41;;;;;;;7.82;1.98;;;;;;;-1.30;89.20;102257.53;4999813;28;20083;-76
2021/03/17 01:11:07;;;;;;;13.35;1.85;;;;;;;-1.34;89.22;102266.19;4959112;28;20093;-76
2021/03/17 01:13:32;;;;;;;5.93;1.45;;;;;;;-1.35;89.11;102261.94;4994676;28;20035;-76
2021/03/17 01:15:58;;;;;;;8.88;1.40;;;;;;;-1.41;89.70;102255.19;4976858;28;20070;-77
2021/03/17 01:18:23;;;;;;;9.65;1.92;;;;;;;-1.32;89.25;102248.13;4992222;28;20050;-76
2021/03/17 01:20:49;;;;;;;9.13;1.77;;;;;;;-1.43;89.50;102244.06;4991681;28;20060;-77
2021/03/17 01:23:15;;;;;;;5.20;1.35;;;;;;;-1.38;90.05;102255.09;4993847;28;20069;-75
2021/03/17 01:25:43;;;;;;;11.93;2.00;;;;;;;-1.43;89.88;102263.78;4960041;28;20539;-77
2021/03/17 01:28:10;;;;;;;7.85;1.73;;;;;;;-1.46;90.16;102258.72;4960568;28;20061;-78
2021/03/17 01:30:45;;;;;;;9.30;1.60;;;;;;;-1.53;90.12;102244.28;4975576;28;20389;-77
2021/03/17 01:33:12;;;;;;;6.00;1.63;;;;;;;-1.52;90.06;102254.56;4985297;28;20121;-77
2021/03/17 01:35:40;;;;;;;15.60;1.90;;;;;;;-1.60;90.40;102246.13;4989651;28;20042;-76
2021/03/17 01:38:07;;;;;;;9.38;1.60;;;;;;;-1.59;90.53;102252.97;4991709;28;20073;-77
2021/03/17 01:40:34;;;;;;;10.80;1.70;;;;;;;-1.61;90.60;102265.03;4992584;28;20042;-75
2021/03/17 01:43:00;;;;;;;8.43;1.75;;;;;;;-1.63;90.68;102262.50;4991894;28;20050;-77
2021/03/17 01:45:26;;;;;;;19.42;1.80;;;;;;;-1.66;90.91;102259.97;4976145;28;20138;-75
2021/03/17 01:47:52;;;;;;;6.43;1.60;;;;;;;-1.71;91.04;102248.06;4977766;28;20157;-77
2021/03/17 01:50:24;;;;;;;8.55;1.63;;;;;;;-1.68;90.80;102254.00;4993341;28;20133;-77
2021/03/17 01:52:50;;;;;;;14.53;1.60;;;;;;;-1.67;91.18;102254.88;4951580;28;20046;-75
2021/03/17 01:55:18;;;;;;;16.25;1.88;;;;;;;-1.69;91.13;102262.63;4991190;28;20303;-78
2021/03/17 01:57:45;;;;;;;12.63;1.35;;;;;;;-1.73;91.38;102254.97;4977123;28;20065;-77
2021/03/17 02:00:13;;;;;;;17.33;2.05;;;;;;;-1.71;91.19;102248.06;4974429;28;20042;-78
2021/03/17 02:02:41;;;;;;;7.32;1.50;;;;;;;-1.67;91.38;102252.31;5007940;28;20050;-77
2021/03/17 02:05:12;;;;;;;21.63;1.70;;;;;;;-1.67;91.13;102255.72;5008674;28;20050;-77
2021/03/17 02:07:37;;;;;;;11.10;1.50;;;;;;;-1.68;91.07;102243.72;4994028;28;20266;-77
2021/03/17 02:10:09;;;;;;;11.18;1.27;;;;;;;-1.60;91.26;102243.56;4964757;28;20583;-78
2021/03/17 02:12:48;;;;;;;6.45;1.30;;;;;;;-1.61;91.52;102245.28;4976124;28;20066;-77
2021/03/17 02:15:32;;;;;;;16.42;1.77;;;;;;;-1.55;91.09;102244.31;4974240;28;20453;-77
2021/03/17 02:18:05;;;;;;;16.50;2.30;;;;;;;-1.43;90.89;102240.63;4968524;28;20055;-76
2021/03/17 02:21:02;;;;;;;;;;;;;;;-1.48;90.89;102243.31;4969533;28;20061;-76
2021/03/17 02:23:40;;;;;;;17.15;2.75;;;;;;;-1.52;90.94;102241.69;5000447;28;19928;-77
2021/03/17 02:26:16;;;;;;;17.00;2.75;;;;;;;-1.54;91.08;102240.88;4979638;28;20046;-78
2021/03/17 02:29:16;;;;;;;13.50;2.70;;;;;;;-1.59;91.17;102237.53;4976104;28;20039;-76
2021/03/17 02:32:23;;;;;;;13.98;2.85;;;;;;;-1.57;91.60;102233.22;4975725;28;20042;-77
2021/03/17 02:34:51;;;;;;;26.48;3.03;;;;;;;-1.58;91.50;102226.38;4950811;28;20046;-80
2021/03/17 02:37:21;;;;;;;21.83;3.78;;;;;;;-1.53;91.65;102224.53;4996289;28;20050;-77
2021/03/17 02:40:04;;;;;;;20.08;2.90;;;;;;;-1.49;91.18;102233.06;4960496;28;22195;-76
2021/03/17 02:42:30;;;;;;;14.25;2.65;;;;;;;-1.51;91.32;102234.81;4980089;28;20494;-74
2021/03/17 02:45:08;;;;;;;12.32;2.90;;;;;;;-1.60;91.60;102239.28;4987827;28;20055;-75
2021/03/17 02:47:40;;;;;;;13.15;2.55;;;;;;;-1.66;91.40;102226.50;4979399;28;20050;-78
2021/03/17 02:50:09;;;;;;;16.85;2.70;;;;;;;-1.62;91.31;102241.03;4995062;28;20065;-76
2021/03/17 02:52:38;;;;;;;15.95;2.47;;;;;;;-1.61;91.47;102239.31;4993596;28;20061;-77
2021/03/17 02:55:06;;;;;;;9.80;1.90;;;;;;;-1.63;91.73;102233.34;4996498;28;20110;-80
2021/03/17 02:57:36;;;;;;;14.65;2.70;;;;;;;-1.55;91.02;102236.59;4962039;28;20054;-79
2021/03/17 03:00:06;;;;;;;14.68;2.00;;;;;;;-1.60;91.46;102236.72;4995612;28;20058;-80
2021/03/17 03:02:33;;;;;;;12.90;1.80;;;;;;;-1.58;91.56;102234.09;4995232;28;20054;-80
2021/03/17 03:05:01;;;;;;;11.82;2.22;;;;;;;-1.67;91.47;102240.28;4995859;28;20069;-79
2021/03/17 03:07:31;;;;;;;10.32;2.35;;;;;;;-1.70;91.69;102245.47;4982713;28;21176;-76
2021/03/17 03:09:56;;;;;;;12.55;2.13;;;;;;;-1.72;91.68;102238.66;4981096;28;20057;-76
2021/03/17 03:12:23;;;;;;;13.57;2.15;;;;;;;-1.76;91.45;102237.88;4962508;28;20046;-78
2021/03/17 03:14:51;;;;;;;12.30;2.08;;;;;;;-1.74;91.68;102245.56;4986691;28;20047;-76
2021/03/17 03:17:19;;;;;;;9.88;2.10;;;;;;;-1.76;91.72;102243.03;5004105;28;20053;-76
2021/03/17 03:19:48;;;;;;;7.05;1.83;;;;;;;-1.82;91.43;102249.16;4995738;28;20290;-75
2021/03/17 03:22:14;;;;;;;14.55;2.85;;;;;;;-1.88;91.52;102238.16;4993833;28;20043;-76
2021/03/17 03:24:42;;;;;;;7.78;2.10;;;;;;;-1.88;91.52;102249.28;4996302;28;20046;-75
2021/03/17 03:27:08;;;;;;;12.35;2.20;;;;;;;-1.91;91.66;102251.88;4982983;28;20428;-76
2021/03/17 03:29:34;;;;;;;11.77;2.08;;;;;;;-1.97;91.72;102252.84;4978816;28;20038;-77
2021/03/17 03:32:03;;;;;;;8.30;1.83;;;;;;;-1.96;91.60;102254.56;4990890;28;20748;-76
2021/03/17 03:34:28;;;;;;;12.85;2.00;;;;;;;-1.99;92.08;102243.47;4978982;28;20134;-75
2021/03/17 03:36:54;;;;;;;9.85;2.20;;;;;;;-1.98;91.88;102251.19;5009466;28;20046;-76
2021/03/17 03:39:20;;;;;;;9.93;2.05;;;;;;;-1.98;91.74;102256.31;4978861;28;20038;-77
2021/03/17 03:41:46;;;;;;;13.77;2.15;;;;;;;-1.98;91.88;102263.16;4994091;28;20496;-77
2021/03/17 03:44:11;;;;;;;10.10;2.00;;;;;;;-1.98;91.98;102255.44;5006908;28;20043;-77
2021/03/17 03:46:37;;;;;;;6.85;2.10;;;;;;;-2.01;92.20;102253.78;4978619;28;20057;-76
2021/03/17 03:49:05;;;;;;;20.42;2.17;;;;;;;-2.00;92.29;102255.50;5023838;28;20374;-76
2021/03/17 03:51:32;;;;;;;13.35;1.77;;;;;;;-1.98;92.32;102258.03;4978652;28;20120;-78
2021/03/17 03:54:21;;;;;;;10.57;1.83;;;;;;;-1.99;92.30;102253.78;4992798;28;20054;-76
2021/03/17 03:57:04;;;;;;;8.15;1.67;;;;;;;-2.06;92.37;102258.16;5004323;28;20138;-78
2021/03/17 03:59:32;;;;;;;;;;;;;;;-2.07;92.62;102264.19;4975660;28;20042;-77
2021/03/17 04:02:01;;;;;;;12.70;1.75;;;;;;;-2.08;92.45;102256.50;4991994;28;19925;-76
2021/03/17 04:04:40;;;;;;;11.80;1.88;;;;;;;-2.10;92.93;102259.09;4978191;28;20046;-77
2021/03/17 04:07:07;;;;;;;6.22;1.77;;;;;;;-2.11;92.81;102269.41;4976340;28;20038;-75
2021/03/17 04:09:59;;;;;;;9.32;2.38;;;;;;;-2.12;92.49;102276.28;4985744;28;20112;-75
2021/03/17 04:12:26;;;;;;;11.55;2.10;;;;;;;-2.17;92.81;102270.38;4973425;28;20065;-76
2021/03/17 04:14:56;;;;;;;9.70;2.20;;;;;;;-2.11;92.28;102275.41;4961307;28;20056;-77
2021/03/17 04:17:30;;;;;;;10.57;1.80;;;;;;;-2.14;93.00;102272.06;4977565;28;20042;-76
2021/03/17 04:19:59;;;;;;;15.60;2.47;;;;;;;-2.17;92.63;102276.38;4992780;28;20054;-75
2021/03/17 04:22:30;;;;;;;8.57;1.75;;;;;;;-2.18;92.54;102278.97;4974078;28;20100;-75
2021/03/17 04:24:59;;;;;;;6.22;1.65;;;;;;;-2.23;93.10;102273.88;4977404;28;20073;-77
2021/03/17 04:27:27;;;;;;;6.18;1.77;;;;;;;-2.24;92.84;102276.47;4971913;28;20050;-77
2021/03/17 04:29:54;;;;;;;14.98;2.20;;;;;;;-2.27;92.98;102279.13;4989276;28;20081;-74
2021/03/17 04:32:22;;;;;;;12.25;1.95;;;;;;;-2.31;93.20;102272.34;4976000;28;20106;-76
2021/03/17 04:34:50;;;;;;;12.02;2.70;;;;;;;-2.30;93.02;102274.88;4993900;28;20050;-74
2021/03/17 04:37:17;;;;;;;13.10;2.20;;;;;;;-2.24;92.95;102276.47;4983605;28;20069;-75
2021/03/17 04:39:43;;;;;;;14.43;2.30;;;;;;;-2.24;93.74;102277.34;4977154;28;20030;-75
2021/03/17 04:42:10;;;;;;;9.93;2.22;;;;;;;-2.20;93.68;102280.72;4990112;28;20036;-75
2021/03/17 04:44:38;;;;;;;13.20;2.20;;;;;;;-2.24;93.12;102279.91;4960567;28;20035;-76
2021/03/17 04:47:05;;;;;;;14.68;2.92;;;;;;;-2.19;93.94;102284.97;4968774;28;20048;-75
2021/03/17 04:49:32;;;;;;;5.15;2.20;;;;;;;-2.18;93.63;102284.13;4971700;28;20027;-75
2021/03/17 04:51:58;;;;;;;10.35;2.25;;;;;;;-2.14;93.44;102288.31;4993409;28;20057;-77
2021/03/17 04:54:23;;;;;;;5.72;2.00;;;;;;;-2.16;93.87;102287.50;4977896;28;20456;-75
2021/03/17 04:56:51;;;;;;;13.02;2.13;;;;;;;-2.18;93.15;102297.81;4963479;28;20151;-78
2021/03/17 04:59:20;;;;;;;6.80;2.17;;;;;;;-2.20;93.63;102289.28;4978681;28;20791;-77
2021/03/17 05:01:46;;;;;;;14.75;2.33;;;;;;;-2.23;93.54;102284.16;4986358;28;20050;-76
2021/03/17 05:04:13;;;;;;;13.95;2.50;;;;;;;-2.27;93.36;102286.84;4976969;28;20053;-75
2021/03/17 05:06:43;;;;;;;14.02;2.28;;;;;;;-2.28;93.44;102287.69;4985991;28;20043;-76
2021/03/17 05:09:10;;;;;;;9.75;2.33;;;;;;;-2.29;94.37;102284.28;4982305;28;20042;-74
2021/03/17 05:11:38;;;;;;;9.68;2.90;;;;;;;-2.27;94.02;102287.69;4989590;28;20050;-75
2021/03/17 05:14:05;;;;;;;15.13;2.20;;;;;;;-2.27;93.86;102297.97;4975671;28;20043;-76
2021/03/17 05:16:32;;;;;;;13.50;2.10;;;;;;;-2.27;94.11;102294.53;4985611;28;20050;-77
2021/03/17 05:19:00;;;;;;;13.40;2.45;;;;;;;-2.31;93.76;102291.19;4977243;28;20074;-75
2021/03/17 05:21:27;;;;;;;7.85;2.00;;;;;;;-2.27;93.84;102294.53;4982622;28;20042;-76
2021/03/17 05:23:53;;;;;;;11.40;2.78;;;;;;;-2.28;93.51;102291.13;4993446;28;20535;-76
2021/03/17 05:26:19;;;;;;;12.95;2.50;;;;;;;-2.20;93.98;102294.41;4974214;28;20055;-75
2021/03/17 05:28:45;;;;;;;9.70;2.20;;;;;;;-2.19;93.85;102300.41;4982852;28;20046;-77
2021/03/17 05:31:11;;;;;;;10.70;3.15;;;;;;;-2.02;94.94;102306.09;4992151;28;20078;-77
2021/03/17 05:33:37;;;;;;;9.35;2.85;;;;;;;-2.07;94.71;102302.78;4969890;28;20042;-75
2021/03/17 05:36:02;;;;;;;12.48;3.00;;;;;;;-1.99;94.64;102308.59;4993063;28;20089;-76
2021/03/17 05:38:28;;;;;;;11.27;2.75;;;;;;;-1.94;94.30;102307.69;4993024;28;20050;-77
2021/03/17 05:40:55;;;;;;;14.55;2.67;;;;;;;-1.95;94.49;102311.97;4973501;28;20047;-77
2021/03/17 05:43:22;;;;;;;14.15;2.78;;;;;;;-1.89;94.46;102313.59;4983456;28;20520;-76
2021/03/17 05:45:48;;;;;;;9.35;2.53;;;;;;;-2.00;94.56;102304.38;4992164;28;20050;-77
2021/03/17 05:48:15;;;;;;;9.13;2.70;;;;;;;-2.00;94.56;102306.94;4992136;28;20048;-76
2021/03/17 05:50:41;;;;;;;11.82;2.90;;;;;;;-2.02;94.35;102312.97;4961429;28;20424;-77
2021/03/17 05:53:08;;;;;;;7.80;2.40;;;;;;;-2.04;94.80;102315.56;4969687;28;20051;-77
2021/03/17 05:55:36;;;;;;;21.23;3.45;;;;;;;-2.08;94.61;102315.66;4978384;28;20046;-75
2021/03/17 05:58:02;;;;;;;9.90;3.00;;;;;;;-2.09;94.53;102324.22;4977342;28;20062;-79
2021/03/17 06:00:28;;;;;;;10.45;2.53;;;;;;;-2.11;94.35;102318.25;4976610;28;20042;-77
2021/03/17 06:02:54;;;;;;;12.38;3.10;;;;;;;-2.11;94.76;102325.97;4991081;28;20049;-76
2021/03/17 06:05:22;;;;;;;9.45;3.28;;;;;;;-2.08;94.38;102323.34;4988359;28;20035;-77
2021/03/17 06:08:03;;;;;;;12.02;2.95;;;;;;;-2.08;94.64;102333.66;4983303;28;20043;-76
2021/03/17 06:10:30;;;;;;;8.18;2.55;;;;;;;-2.10;94.77;102333.66;4975104;28;20554;-76
2021/03/17 06:13:15;;;;;;;12.50;3.30;;;;;;;-2.09;94.99;102334.50;4977550;28;20121;-76
2021/03/17 06:15:50;;;;;;;8.23;3.10;;;;;;;-2.09;94.67;102331.94;4975912;28;20492;-76
2021/03/17 06:18:25;;;;;;;7.15;3.00;;;;;;;-2.07;94.98;102331.06;4992887;28;20050;-77
2021/03/17 06:20:51;;;;;;;9.23;3.20;;;;;;;-2.07;94.81;102325.91;4993864;28;20047;-76
2021/03/17 06:23:17;;;;;;;9.88;2.58;;;;;;;-2.04;94.83;102333.56;4971998;28;20109;-76
2021/03/17 06:25:44;;;;;;;12.98;3.13;;;;;;;-2.03;94.75;102332.69;4970187;28;20047;-75
2021/03/17 06:28:11;;;;;;;8.98;3.13;;;;;;;-2.01;94.79;102328.38;4991984;28;20117;-76
2021/03/17 06:30:37;;;;;;;7.32;3.13;;;;;;;-1.96;94.85;102343.69;4990327;28;20114;-77
2021/03/17 06:33:03;;;;;;;18.02;3.75;;;;;;;-1.93;94.53;102337.69;4957789;28;20085;-76
2021/03/17 06:35:29;;;;;;;9.02;2.60;;;;;;;-1.88;94.70;102334.16;4988666;28;20501;-75
2021/03/17 06:37:54;;;;;;;11.45;3.35;;;;;;;-1.83;94.68;102332.34;4991275;28;20070;-75
2021/03/17 06:40:24;;;;;;;14.07;3.03;;;;;;;-1.79;94.73;102339.13;4991559;28;20047;-76
2021/03/17 06:42:51;;;;;;;13.75;3.47;;;;;;;-1.70;94.85;102338.09;4976466;28;20054;-76
2021/03/17 06:45:43;;;;;;;8.80;3.40;;;;;;;-1.65;95.10;102336.28;4975014;28;20081;-76
2021/03/17 06:48:29;;;;;;;13.13;3.70;;;;;;;-1.50;95.08;102329.16;4976220;28;20050;-75
2021/03/17 06:51:14;;;;;;;17.23;3.67;;;;;;;-1.42;95.01;102338.41;4983407;28;20054;-74
2021/03/17 06:53:55;;;;;;;13.77;3.42;;;;;;;-1.33;94.94;102344.28;4944417;28;20050;-77
2021/03/17 06:56:25;;;;;;;11.68;3.22;;;;;;;-1.27;94.37;102339.84;4987319;28;20134;-77
2021/03/17 06:59:05;;;;;;;15.50;3.47;;;;;;;-1.17;94.72;102337.91;4993319;28;20042;-78
2021/03/17 07:01:40;;;;;;;16.67;4.00;;;;;;;-1.06;94.55;102342.84;4972435;28;20049;-77
2021/03/17 07:04:31;;;;;;;15.20;4.00;;;;;;;-1.01;94.32;102346.19;4977486;28;20477;-77
2021/03/17 07:07:02;;;;;;;13.25;4.43;;;;;;;-0.95;94.74;102348.63;4994004;28;20041;-74
2021/03/17 07:09:30;;;;;;;13.70;4.50;;;;;;;-0.84;94.85;102350.97;4972908;28;20038;-75
2021/03/17 07:12:10;;;;;;;16.08;4.28;;;;;;;-0.54;94.10;102354.59;4959810;28;20074;-76
2021/03/17 07:14:45;;;;;;;12.05;3.75;;;;;;;-0.48;93.90;102354.44;4995535;28;20038;-77
2021/03/17 07:17:27;;;;;;;13.25;4.53;;;;;;;-0.35;94.26;102349.00;4978173;28;20050;-76
2021/03/17 07:19:52;;;;;;;13.55;3.85;;;;;;;-0.17;94.19;102348.56;4977989;28;20070;-76
2021/03/17 07:22:18;;;;;;;17.38;4.40;;;;;;;0.06;93.48;102349.69;4996059;28;20064;-77
2021/03/17 07:24:46;;;;;;;19.98;4.32;;;;;;;0.32;92.90;102351.59;4978362;28;20193;-76
2021/03/17 07:27:15;;;;;;;21.02;4.53;;;;;;;0.42;92.53;102344.47;4990556;28;20511;-77
2021/03/17 07:29:41;;;;;;;18.33;4.95;;;;;;;0.49;93.37;102357.19;4990432;28;20057;-77
2021/03/17 07:32:06;;;;;;;14.40;4.07;;;;;;;0.56;93.17;102363.84;4972963;28;20046;-77
2021/03/17 07:34:33;;;;;;;10.73;3.75;;;;;;;0.67;92.51;102360.97;4975930;28;20051;-77
2021/03/17 07:37:08;;;;;;;19.88;4.15;;;;;;;0.89;90.80;102361.22;4973148;28;20042;-77
2021/03/17 07:39:40;;;;;;;21.33;4.82;;;;;;;1.14;90.33;102368.25;4976945;28;20072;-76
2021/03/17 07:42:08;;;;;;;18.88;4.15;;;;;;;1.26;88.54;102362.72;4995313;28;20034;-78
2021/03/17 07:44:36;;;;;;;15.80;3.97;;;;;;;1.36;88.36;102364.13;4962509;28;20034;-76
2021/03/17 07:47:04;;;;;;;18.45;3.75;;;;;;;1.35;88.82;102367.59;4993512;28;20091;-78
2021/03/17 07:49:30;;;;;;;16.42;4.55;;;;;;;1.55;87.79;102372.16;4977952;28;20042;-77
2021/03/17 07:52:01;;;;;;;16.15;4.00;;;;;;;1.68;87.09;102366.59;4995189;28;20527;-78
2021/03/17 07:54:37;;;;;;;12.73;4.15;;;;;;;1.77;87.62;102375.78;4979289;28;20049;-76
2021/03/17 07:57:06;;;;;;;16.67;4.53;;;;;;;1.75;87.88;102365.50;4993355;28;20669;-77
2021/03/17 07:59:34;;;;;;;14.52;4.60;;;;;;;2.05;86.16;102368.81;4977010;28;20066;-78
2021/03/17 08:01:59;;;;;;;16.50;4.30;;;;;;;2.05;87.76;102375.72;4978365;28;20045;-75
2021/03/17 08:04:30;;;;;;;19.95;4.60;;;;;;;2.21;87.72;102368.31;4994171;28;20050;-75
2021/03/17 08:06:57;;;;;;;20.08;5.70;;;;;;;2.27;84.78;102386.22;4994350;28;20491;-75
2021/03/17 08:09:23;;;;;;;25.73;5.78;;;;;;;2.18;86.87;102379.59;4995028;28;20782;-76
2021/03/17 08:11:51;;;;;;;25.02;6.60;;;;;;;2.25;88.20;102378.50;4976302;28;20042;-75
2021/03/17 08:14:18;;;;;;;26.58;6.55;;;;;;;2.28;87.39;102385.31;4994001;28;20125;-77
2021/03/17 08:16:44;;;;;;;22.83;7.20;;;;;;;2.24;85.76;102384.59;4976872;28;20048;-75
2021/03/17 08:19:22;;;;;;;22.77;7.38;;;;;;;2.44;85.95;102393.41;4997055;28;20050;-77
2021/03/17 08:22:02;;;;;;;28.45;7.63;;;;;;;2.53;86.10;102391.34;4961671;28;20046;-76
2021/03/17 08:24:37;;;;;;;25.02;7.72;;;;;;;2.63;85.39;102399.63;4963401;28;20069;-76
2021/03/17 08:27:06;;;;;;;19.15;7.30;;;;;;;2.48;84.57;102397.56;4993806;28;20524;-78
2021/03/17 08:29:36;;;;;;;19.75;6.20;;;;;;;2.63;84.93;102396.19;4990471;28;20042;-75
2021/03/17 08:32:02;;;;;;;16.15;6.13;;;;;;;2.56;82.75;102399.91;4978404;28;20513;-76
2021/03/17 08:34:31;;;;;;;16.30;6.07;;;;;;;2.45;83.51;102395.06;5010965;28;20050;-76
2021/03/17 08:37:08;;;;;;;19.27;6.40;;;;;;;2.48;84.29;102390.63;4964924;28;20089;-76
2021/03/17 08:39:36;;;;;;;22.40;6.70;;;;;;;2.57;84.09;102396.41;4993329;28;20050;-75
2021/03/17 08:42:40;;;;;;;21.67;6.70;;;;;;;2.62;84.61;102404.84;4977996;28;20125;-77
2021/03/17 08:45:17;;;;;;;18.65;6.40;;;;;;;2.77;85.17;102395.69;4937638;29;20059;-76
2021/03/17 08:47:45;;;;;;;17.17;6.65;;;;;;;2.89;84.65;102410.81;4938580;29;20408;-78
2021/03/17 08:50:19;;;;;;;18.05;5.93;;;;;;;2.93;82.79;102402.84;4976267;28;20114;-78
2021/03/17 08:52:52;;;;;;;26.75;6.18;;;;;;;2.88;82.86;102414.28;4980795;28;20054;-77
2021/03/17 08:55:19;;;;;;;;;;;;;;;2.99;83.40;102411.31;4980444;28;20045;-77
2021/03/17 08:57:59;;;;;;;22.55;6.80;;;;;;;2.93;81.15;102413.22;4985273;28;20388;-76
2021/03/17 09:00:54;;;;;;;25.63;6.88;;;;;;;3.08;82.01;102413.56;4959105;28;20142;-76
2021/03/17 09:03:32;;;;;;;18.02;6.47;;;;;;;3.15;80.83;102427.16;4974870;28;20057;-77
2021/03/17 09:06:28;;;;;;;16.90;6.30;;;;;;;3.21;80.43;102413.97;4966584;28;20046;-76
2021/03/17 09:08:54;;;;;;;20.08;6.22;;;;;;;3.38;80.57;102421.94;4996888;28;20042;-76
2021/03/17 09:11:29;;;;;;;21.67;6.88;;;;;;;3.43;80.15;102416.59;4979442;28;20157;-76
2021/03/17 09:13:56;;;;;;;19.48;6.60;;;;;;;3.44;80.33;102426.03;4980885;28;20069;-75
2021/03/17 09:16:22;;;;;;;16.25;6.93;;;;;;;3.40;79.33;102421.88;4980160;28;20416;-77
2021/03/17 09:19:11;;;;;;;22.27;6.03;;;;;;;3.50;79.60;102434.44;4981791;28;20105;-77
2021/03/17 09:21:45;;;;;;;14.57;6.05;;;;;;;3.56;79.45;102419.53;4989122;28;20054;-77
2021/03/17 09:24:32;;;;;;;22.50;6.63;;;;;;;3.65;80.29;102429.56;5000995;28;20050;-75
2021/03/17 09:27:01;;;;;;;15.88;6.57;;;;;;;3.81;80.08;102429.81;4995265;28;20074;-76
2021/03/17 09:29:27;;;;;;;24.05;7.38;;;;;;;3.67;79.22;102426.00;4984915;28;20562;-77
2021/03/17 09:31:53;;;;;;;23.55;8.57;;;;;;;3.92;79.57;102421.56;4992550;28;20082;-75
2021/03/17 09:34:27;;;;;;;24.90;7.88;;;;;;;4.35;78.64;102433.66;4989328;28;20034;-78
2021/03/17 09:37:03;;;;;;;22.17;6.72;;;;;;;4.53;76.01;102429.41;4977497;28;20046;-80
2021/03/17 09:39:29;;;;;;;25.63;7.35;;;;;;;4.58;76.30;102426.63;4987719;28;20038;-74
2021/03/17 09:41:54;;;;;;;28.33;7.00;;;;;;;4.74;76.22;102438.03;4984960;28;20109;-76
2021/03/17 09:44:21;;;;;;;19.55;7.28;;;;;;;4.67;76.79;102437.47;4982819;28;20588;-77
2021/03/17 09:46:51;;;;;;;20.73;5.57;;;;;;;4.64;74.65;102436.75;5003478;28;20053;-76
2021/03/17 09:49:19;;;;;;;23.80;7.22;;;;;;;4.58;76.62;102448.25;4969817;28;20047;-75
2021/03/17 09:51:47;;;;;;;23.67;7.15;;;;;;;4.64;77.23;102447.97;4985288;28;20553;-77
2021/03/17 09:54:15;;;;;;;23.05;7.10;;;;;;;4.74;75.42;102452.78;4983805;28;20026;-75
2021/03/17 09:56:48;;;;;;;21.52;6.95;;;;;;;4.90;74.89;102456.41;5007336;28;20141;-76
2021/03/17 09:59:16;;;;;;;22.83;7.28;;;;;;;4.96;76.00;102452.69;4981984;28;20061;-75
2021/03/17 10:01:52;;;;;;;21.25;7.65;;;;;;;4.97;74.11;102455.22;5021737;28;20062;-77
2021/03/17 10:04:22;;;;;;;15.82;5.88;;;;;;;4.60;74.63;102445.59;4978991;28;20026;-75
2021/03/17 10:06:48;;;;;;;16.77;5.95;;;;;;;4.61;75.39;102455.91;4978928;28;20050;-76
2021/03/17 10:09:15;;;;;;;23.17;5.93;;;;;;;4.55;75.28;102455.34;4994168;28;20073;-76
2021/03/17 10:11:40;;;;;;;19.83;6.60;;;;;;;4.37;75.24;102456.94;4976823;28;20092;-75
2021/03/17 10:14:16;;;;;;;17.52;6.93;;;;;;;4.50;76.54;102460.72;4975914;28;20047;-76
2021/03/17 10:16:43;;;;;;;19.77;6.32;;;;;;;4.66;75.06;102460.91;4993277;28;20088;-77
2021/03/17 10:19:15;;;;;;;20.52;5.82;;;;;;;4.71;74.28;102461.56;4988553;28;20039;-75
2021/03/17 10:21:44;;;;;;;19.33;6.38;;;;;;;4.78;75.17;102462.13;4987231;28;20042;-75
2021/03/17 10:24:11;;;;;;;22.90;6.90;;;;;;;4.93;74.27;102460.63;4994096;28;20508;-77
2021/03/17 10:26:39;;;;;;;18.75;6.25;;;;;;;4.83;74.91;102474.03;4986585;28;20141;-76
2021/03/17 10:29:05;;;;;;;21.40;7.00;;;;;;;4.98;75.56;102467.31;4964956;28;20054;-76
2021/03/17 10:31:33;;;;;;;16.85;6.88;;;;;;;5.14;75.02;102475.28;4994147;28;20046;-76
2021/03/17 10:33:59;;;;;;;21.42;6.45;;;;;;;5.10;74.36;102481.50;4973206;28;20077;-77
2021/03/17 10:36:26;;;;;;;15.57;6.55;;;;;;;5.03;73.71;102478.34;4992745;28;20129;-77
2021/03/17 10:38:52;;;;;;;15.00;6.05;;;;;;;4.94;74.18;102473.56;4977516;28;20670;-76
2021/03/17 10:41:36;;;;;;;21.17;6.32;;;;;;;4.90;74.07;102481.56;4994337;28;20038;-76
2021/03/17 10:44:21;;;;;;;20.25;6.65;;;;;;;5.02;75.13;102475.81;4980298;28;20050;-76
2021/03/17 10:47:01;;;;;;;17.23;6.30;;;;;;;4.92;75.44;102477.16;4996014;28;20093;-76
2021/03/17 10:49:28;;;;;;;20.75;7.28;;;;;;;5.15;73.89;102481.31;4996146;28;20112;-76
2021/03/17 10:51:56;;;;;;;16.85;6.53;;;;;;;5.25;74.47;102482.59;4962443;28;20072;-76
2021/03/17 10:54:54;;;;;;;13.98;6.10;;;;;;;5.18;73.15;102476.84;4968408;28;20097;-78
2021/03/17 10:57:23;;;;;;;20.25;6.97;;;;;;;5.17;72.96;102475.13;4964462;28;20046;-78
2021/03/17 10:59:50;;;;;;;10.23;5.88;;;;;;;5.31;73.64;102477.09;4966630;28;20054;-77
2021/03/17 11:02:21;;;;;;;17.27;6.30;;;;;;;5.28;74.04;102466.84;5012247;28;20046;-77
2021/03/17 11:05:10;;;;;;;14.98;6.43;;;;;;;5.58;73.62;102476.78;5006772;28;20129;-77
2021/03/17 11:07:52;;;;;;;20.00;7.22;;;;;;;5.78;72.37;102471.47;5004939;28;20053;-76
2021/03/17 11:10:56;;;;;;;17.20;6.72;;;;;;;5.69;72.45;102464.09;4996883;28;20041;-77
2021/03/17 11:13:27;;;;;;;17.50;6.40;;;;;;;5.81;71.73;102470.47;4977356;28;20621;-76
2021/03/17 11:15:55;;;;;;;15.20;6.03;;;;;;;5.87;71.18;102466.72;4978576;28;20125;-76
2021/03/17 11:18:23;;;;;;;19.42;6.43;;;;;;;5.98;71.48;102470.53;4986974;28;20054;-76
2021/03/17 11:20:49;;;;;;;21.75;7.22;;;;;;;6.27;71.75;102462.19;4982648;28;20050;-76
2021/03/17 11:23:18;;;;;;;16.70;6.40;;;;;;;6.54;70.85;102463.44;4981218;28;20545;-78
2021/03/17 11:25:44;;;;;;;13.27;6.20;;;;;;;6.79;68.25;102464.78;5008112;28;20046;-77
2021/03/17 11:28:15;;;;;;;15.80;6.43;;;;;;;6.92;68.62;102455.38;4994008;28;20049;-76
2021/03/17 11:30:45;;;;;;;14.73;6.55;;;;;;;7.24;70.31;102457.22;4974114;28;20125;-77
2021/03/17 11:33:12;;;;;;;15.57;6.43;;;;;;;6.99;67.02;102466.34;4995229;28;20049;-76
2021/03/17 11:35:38;;;;;;;18.45;6.72;;;;;;;6.40;69.29;102455.44;4958694;28;20061;-77
2021/03/17 11:38:04;;;;;;;15.25;6.35;;;;;;;6.51;69.53;102466.19;4996326;28;20062;-76
2021/03/17 11:40:30;;;;;;;20.35;6.78;;;;;;;6.75;70.22;102466.69;4995189;28;20090;-76
2021/03/17 11:43:09;;;;;;;17.50;6.50;;;;;;;7.11;68.66;102470.06;4980508;28;20049;-78